sensor_id;sensor_type;location;lat;lon;timestamp;temperature;humidity
56298;DHT22;42208;6.376;-10.782;2022-11-15T00:02:04;26.70;99.90
56298;DHT22;42208;6.376;-10.782;2022-11-15T00:04:50;26.60;99.90
56298;DHT22;42208;6.376;-10.782;2022-11-15T00:07:37;26.50;99.90
56298;DHT22;42208;6.376;-10.782;2022-11-15T00:10:40;26.50;99.90
56298;DHT22;42208;6.376;-10.782;2022-11-15T00:13:27;26.30;99.90
56298;DHT22;42208;6.376;-10.782;2022-11-15T00:16:15;26.30;99.90
56298;DHT22;42208;6.376;-10.782;2022-11-15T00:19:02;26.20;99.90
56298;DHT22;42208;6.376;-10.782;2022-11-15T00:21:49;26.10;99.90
56298;DHT22;42208;6.376;-10.782;2022-11-15T00:24:35;26.00;99.90
56298;DHT22;42208;6.376;-10.782;2022-11-15T00:27:22;26.00;99.90
56298;DHT22;42208;6.376;-10.782;2022-11-15T00:30:08;26.00;99.90
56298;DHT22;42208;6.376;-10.782;2022-11-15T00:32:55;26.00;99.90
56298;DHT22;42208;6.376;-10.782;2022-11-15T00:35:42;26.10;99.90
56298;DHT22;42208;6.376;-10.782;2022-11-15T00:38:35;26.10;99.90
56298;DHT22;42208;6.376;-10.782;2022-11-15T00:41:22;26.10;99.90
56298;DHT22;42208;6.376;-10.782;2022-11-15T00:44:08;26.00;99.90
56298;DHT22;42208;6.376;-10.782;2022-11-15T00:46:55;26.00;99.90
56298;DHT22;42208;6.376;-10.782;2022-11-15T00:49:42;26.00;99.90
56298;DHT22;42208;6.376;-10.782;2022-11-15T00:52:28;26.00;99.90
56298;DHT22;42208;6.376;-10.782;2022-11-15T00:55:18;26.00;99.90
56298;DHT22;42208;6.376;-10.782;2022-11-15T00:58:05;26.10;99.90
56298;DHT22;42208;6.376;-10.782;2022-11-15T01:00:51;26.10;99.90
56298;DHT22;42208;6.376;-10.782;2022-11-15T01:03:39;26.10;99.90
56298;DHT22;42208;6.376;-10.782;2022-11-15T01:06:26;26.00;99.90
56298;DHT22;42208;6.376;-10.782;2022-11-15T01:09:12;26.00;99.90
56298;DHT22;42208;6.376;-10.782;2022-11-15T01:11:59;26.10;99.90
56298;DHT22;42208;6.376;-10.782;2022-11-15T01:14:45;26.10;99.90
56298;DHT22;42208;6.376;-10.782;2022-11-15T01:17:31;26.10;99.90
56298;DHT22;42208;6.376;-10.782;2022-11-15T01:20:18;26.10;99.90
56298;DHT22;42208;6.376;-10.782;2022-11-15T01:23:04;26.10;99.90
56298;DHT22;42208;6.376;-10.782;2022-11-15T01:25:51;26.10;99.90
56298;DHT22;42208;6.376;-10.782;2022-11-15T01:28:38;26.10;99.90
56298;DHT22;42208;6.376;-10.782;2022-11-15T01:31:25;26.10;99.90
56298;DHT22;42208;6.376;-10.782;2022-11-15T01:34:11;26.00;99.90
56298;DHT22;42208;6.376;-10.782;2022-11-15T01:36:58;25.90;99.90
56298;DHT22;42208;6.376;-10.782;2022-11-15T01:39:45;25.70;99.90
56298;DHT22;42208;6.376;-10.782;2022-11-15T01:42:31;25.70;99.90
56298;DHT22;42208;6.376;-10.782;2022-11-15T01:45:17;25.70;99.90
56298;DHT22;42208;6.376;-10.782;2022-11-15T01:48:04;25.70;99.90
56298;DHT22;42208;6.376;-10.782;2022-11-15T01:50:51;25.70;99.90
56298;DHT22;42208;6.376;-10.782;2022-11-15T01:53:39;25.70;99.90
56298;DHT22;42208;6.376;-10.782;2022-11-15T01:56:31;25.60;99.90
56298;DHT22;42208;6.376;-10.782;2022-11-15T01:59:19;25.40;99.90
56298;DHT22;42208;6.376;-10.782;2022-11-15T02:02:06;25.50;99.90
56298;DHT22;42208;6.376;-10.782;2022-11-15T02:04:53;25.30;99.90
56298;DHT22;42208;6.376;-10.782;2022-11-15T02:07:39;25.30;99.90
56298;DHT22;42208;6.376;-10.782;2022-11-15T02:10:27;25.30;99.90
56298;DHT22;42208;6.376;-10.782;2022-11-15T02:13:18;25.30;99.90
56298;DHT22;42208;6.376;-10.782;2022-11-15T02:22:16;25.30;99.90
56298;DHT22;42208;6.376;-10.782;2022-11-15T02:40:43;25.40;99.90
56298;DHT22;42208;6.376;-10.782;2022-11-15T02:43:43;25.30;99.90
56298;DHT22;42208;6.376;-10.782;2022-11-15T02:49:51;25.30;99.90
56298;DHT22;42208;6.376;-10.782;2022-11-15T02:52:39;25.30;99.90
56298;DHT22;42208;6.376;-10.782;2022-11-15T03:01:56;25.30;99.90
56298;DHT22;42208;6.376;-10.782;2022-11-15T03:11:03;25.50;99.90
56298;DHT22;42208;6.376;-10.782;2022-11-15T03:17:08;25.50;99.90
56298;DHT22;42208;6.376;-10.782;2022-11-15T03:19:59;25.50;99.90
56298;DHT22;42208;6.376;-10.782;2022-11-15T03:22:47;25.50;99.90
56298;DHT22;42208;6.376;-10.782;2022-11-15T03:25:38;25.60;99.90
56298;DHT22;42208;6.376;-10.782;2022-11-15T03:28:42;25.60;99.90
56298;DHT22;42208;6.376;-10.782;2022-11-15T03:31:33;25.60;99.90
56298;DHT22;42208;6.376;-10.782;2022-11-15T03:37:16;25.60;99.90
56298;DHT22;42208;6.376;-10.782;2022-11-15T03:40:04;25.60;99.90
56298;DHT22;42208;6.376;-10.782;2022-11-15T03:43:09;25.60;99.90
56298;DHT22;42208;6.376;-10.782;2022-11-15T03:46:04;25.60;99.90
56298;DHT22;42208;6.376;-10.782;2022-11-15T03:49:32;25.60;99.90
56298;DHT22;42208;6.376;-10.782;2022-11-15T03:52:11;25.60;99.90
56298;DHT22;42208;6.376;-10.782;2022-11-15T03:55:00;25.50;99.90
56298;DHT22;42208;6.376;-10.782;2022-11-15T03:57:49;25.60;99.90
56298;DHT22;42208;6.376;-10.782;2022-11-15T04:00:37;25.50;99.90
56298;DHT22;42208;6.376;-10.782;2022-11-15T04:03:23;25.50;99.90
56298;DHT22;42208;6.376;-10.782;2022-11-15T04:06:10;25.60;99.90
56298;DHT22;42208;6.376;-10.782;2022-11-15T04:08:56;25.60;99.90
56298;DHT22;42208;6.376;-10.782;2022-11-15T04:11:42;25.50;99.90
56298;DHT22;42208;6.376;-10.782;2022-11-15T04:14:29;25.60;99.90
56298;DHT22;42208;6.376;-10.782;2022-11-15T04:17:15;25.60;99.90
56298;DHT22;42208;6.376;-10.782;2022-11-15T04:20:04;25.60;99.90
56298;DHT22;42208;6.376;-10.782;2022-11-15T04:22:52;25.60;99.90
56298;DHT22;42208;6.376;-10.782;2022-11-15T04:25:40;25.60;99.90
56298;DHT22;42208;6.376;-10.782;2022-11-15T04:28:27;25.60;99.90
56298;DHT22;42208;6.376;-10.782;2022-11-15T04:31:14;25.60;99.90
56298;DHT22;42208;6.376;-10.782;2022-11-15T04:34:00;25.60;99.90
56298;DHT22;42208;6.376;-10.782;2022-11-15T04:36:46;25.60;99.90
56298;DHT22;42208;6.376;-10.782;2022-11-15T04:39:33;25.60;99.90
56298;DHT22;42208;6.376;-10.782;2022-11-15T04:42:19;25.60;99.90
56298;DHT22;42208;6.376;-10.782;2022-11-15T04:45:06;25.60;99.90
56298;DHT22;42208;6.376;-10.782;2022-11-15T04:47:53;25.50;99.90
56298;DHT22;42208;6.376;-10.782;2022-11-15T04:50:39;25.50;99.90
56298;DHT22;42208;6.376;-10.782;2022-11-15T04:53:25;25.50;99.90
56298;DHT22;42208;6.376;-10.782;2022-11-15T04:56:12;25.40;99.90
56298;DHT22;42208;6.376;-10.782;2022-11-15T04:58:59;25.50;99.90
56298;DHT22;42208;6.376;-10.782;2022-11-15T05:01:45;25.50;99.90
56298;DHT22;42208;6.376;-10.782;2022-11-15T05:04:32;25.50;99.90
56298;DHT22;42208;6.376;-10.782;2022-11-15T05:07:18;25.50;99.90
56298;DHT22;42208;6.376;-10.782;2022-11-15T05:10:05;25.50;99.90
56298;DHT22;42208;6.376;-10.782;2022-11-15T05:12:51;25.50;99.90
56298;DHT22;42208;6.376;-10.782;2022-11-15T05:15:38;25.50;99.90
56298;DHT22;42208;6.376;-10.782;2022-11-15T05:18:24;25.50;99.90
56298;DHT22;42208;6.376;-10.782;2022-11-15T05:21:14;25.40;99.90
56298;DHT22;42208;6.376;-10.782;2022-11-15T05:24:01;25.40;99.90
56298;DHT22;42208;6.376;-10.782;2022-11-15T05:26:47;25.40;99.90
56298;DHT22;42208;6.376;-10.782;2022-11-15T05:29:34;25.40;99.90
56298;DHT22;42208;6.376;-10.782;2022-11-15T05:32:20;25.40;99.90
56298;DHT22;42208;6.376;-10.782;2022-11-15T05:35:10;25.40;99.90
56298;DHT22;42208;6.376;-10.782;2022-11-15T05:37:58;25.40;99.90
56298;DHT22;42208;6.376;-10.782;2022-11-15T05:40:45;25.30;99.90
56298;DHT22;42208;6.376;-10.782;2022-11-15T05:43:34;25.20;99.90
56298;DHT22;42208;6.376;-10.782;2022-11-15T05:46:21;25.10;99.90
56298;DHT22;42208;6.376;-10.782;2022-11-15T05:49:11;25.10;99.90
56298;DHT22;42208;6.376;-10.782;2022-11-15T05:51:59;25.00;99.90
56298;DHT22;42208;6.376;-10.782;2022-11-15T05:54:46;25.00;99.90
56298;DHT22;42208;6.376;-10.782;2022-11-15T05:57:33;25.10;99.90
56298;DHT22;42208;6.376;-10.782;2022-11-15T06:00:20;25.10;99.90
56298;DHT22;42208;6.376;-10.782;2022-11-15T06:03:06;25.00;99.90
56298;DHT22;42208;6.376;-10.782;2022-11-15T06:05:53;25.00;99.90
56298;DHT22;42208;6.376;-10.782;2022-11-15T06:08:39;25.00;99.90
56298;DHT22;42208;6.376;-10.782;2022-11-15T06:11:26;25.00;99.90
56298;DHT22;42208;6.376;-10.782;2022-11-15T06:14:12;25.00;99.90
56298;DHT22;42208;6.376;-10.782;2022-11-15T06:16:58;24.90;99.90
56298;DHT22;42208;6.376;-10.782;2022-11-15T06:19:45;24.90;99.90
56298;DHT22;42208;6.376;-10.782;2022-11-15T06:22:31;25.00;99.90
56298;DHT22;42208;6.376;-10.782;2022-11-15T06:25:17;24.90;99.90
56298;DHT22;42208;6.376;-10.782;2022-11-15T06:28:04;25.00;99.90
56298;DHT22;42208;6.376;-10.782;2022-11-15T06:30:51;25.00;99.90
56298;DHT22;42208;6.376;-10.782;2022-11-15T06:33:38;25.00;99.90
56298;DHT22;42208;6.376;-10.782;2022-11-15T06:36:25;25.10;99.90
56298;DHT22;42208;6.376;-10.782;2022-11-15T06:39:11;25.00;99.90
56298;DHT22;42208;6.376;-10.782;2022-11-15T06:41:58;25.10;99.90
56298;DHT22;42208;6.376;-10.782;2022-11-15T06:44:45;25.10;99.90
56298;DHT22;42208;6.376;-10.782;2022-11-15T06:47:31;25.10;99.90
56298;DHT22;42208;6.376;-10.782;2022-11-15T06:50:17;25.10;99.90
56298;DHT22;42208;6.376;-10.782;2022-11-15T06:53:04;25.10;99.90
56298;DHT22;42208;6.376;-10.782;2022-11-15T06:55:51;25.10;99.90
56298;DHT22;42208;6.376;-10.782;2022-11-15T06:58:40;25.20;99.90
56298;DHT22;42208;6.376;-10.782;2022-11-15T07:01:26;25.10;99.90
56298;DHT22;42208;6.376;-10.782;2022-11-15T07:04:13;25.20;99.90
56298;DHT22;42208;6.376;-10.782;2022-11-15T07:06:59;25.20;99.90
56298;DHT22;42208;6.376;-10.782;2022-11-15T07:09:46;25.10;99.90
56298;DHT22;42208;6.376;-10.782;2022-11-15T07:12:33;25.20;99.90
56298;DHT22;42208;6.376;-10.782;2022-11-15T07:15:21;25.20;99.90
56298;DHT22;42208;6.376;-10.782;2022-11-15T07:18:08;25.20;99.90
56298;DHT22;42208;6.376;-10.782;2022-11-15T07:20:54;25.20;99.90
56298;DHT22;42208;6.376;-10.782;2022-11-15T07:23:40;25.20;99.90
56298;DHT22;42208;6.376;-10.782;2022-11-15T07:26:27;25.20;99.90
56298;DHT22;42208;6.376;-10.782;2022-11-15T07:29:13;25.20;99.90
56298;DHT22;42208;6.376;-10.782;2022-11-15T07:32:00;25.10;99.90
56298;DHT22;42208;6.376;-10.782;2022-11-15T07:34:46;25.10;99.90
56298;DHT22;42208;6.376;-10.782;2022-11-15T07:37:32;25.10;99.90
56298;DHT22;42208;6.376;-10.782;2022-11-15T07:40:19;25.10;99.90
56298;DHT22;42208;6.376;-10.782;2022-11-15T07:43:06;25.00;99.90
56298;DHT22;42208;6.376;-10.782;2022-11-15T07:45:54;25.00;99.90
56298;DHT22;42208;6.376;-10.782;2022-11-15T07:48:44;25.00;99.90
56298;DHT22;42208;6.376;-10.782;2022-11-15T07:51:30;25.00;99.90
56298;DHT22;42208;6.376;-10.782;2022-11-15T07:54:17;25.00;99.90
56298;DHT22;42208;6.376;-10.782;2022-11-15T07:57:04;25.00;99.90
56298;DHT22;42208;6.376;-10.782;2022-11-15T07:59:52;25.00;99.90
56298;DHT22;42208;6.376;-10.782;2022-11-15T08:02:38;25.00;99.90
56298;DHT22;42208;6.376;-10.782;2022-11-15T08:05:26;25.00;99.90
56298;DHT22;42208;6.376;-10.782;2022-11-15T08:08:12;25.00;99.90
56298;DHT22;42208;6.376;-10.782;2022-11-15T08:10:59;25.00;99.90
56298;DHT22;42208;6.376;-10.782;2022-11-15T08:13:45;25.00;99.90
56298;DHT22;42208;6.376;-10.782;2022-11-15T08:16:32;25.00;99.90
56298;DHT22;42208;6.376;-10.782;2022-11-15T08:19:19;24.90;99.90
56298;DHT22;42208;6.376;-10.782;2022-11-15T08:22:06;25.00;99.90
56298;DHT22;42208;6.376;-10.782;2022-11-15T08:24:53;24.90;99.90
56298;DHT22;42208;6.376;-10.782;2022-11-15T08:27:40;24.90;99.90
56298;DHT22;42208;6.376;-10.782;2022-11-15T08:30:27;24.90;99.90
56298;DHT22;42208;6.376;-10.782;2022-11-15T08:33:14;24.80;99.90
56298;DHT22;42208;6.376;-10.782;2022-11-15T08:36:01;24.80;99.90
56298;DHT22;42208;6.376;-10.782;2022-11-15T08:38:48;24.80;99.90
56298;DHT22;42208;6.376;-10.782;2022-11-15T08:41:37;24.80;99.90
56298;DHT22;42208;6.376;-10.782;2022-11-15T08:44:23;24.70;99.90
56298;DHT22;42208;6.376;-10.782;2022-11-15T08:47:13;24.80;99.90
56298;DHT22;42208;6.376;-10.782;2022-11-15T08:49:59;24.80;99.90
56298;DHT22;42208;6.376;-10.782;2022-11-15T08:52:46;24.80;99.90
56298;DHT22;42208;6.376;-10.782;2022-11-15T08:55:32;24.80;99.90
56298;DHT22;42208;6.376;-10.782;2022-11-15T08:58:22;24.70;99.90
56298;DHT22;42208;6.376;-10.782;2022-11-15T09:01:18;24.70;99.90
56298;DHT22;42208;6.376;-10.782;2022-11-15T09:04:05;24.70;99.90
56298;DHT22;42208;6.376;-10.782;2022-11-15T09:06:52;24.70;99.90
56298;DHT22;42208;6.376;-10.782;2022-11-15T09:09:40;24.70;99.90
56298;DHT22;42208;6.376;-10.782;2022-11-15T09:12:26;24.70;99.90
56298;DHT22;42208;6.376;-10.782;2022-11-15T09:15:16;24.60;99.90
56298;DHT22;42208;6.376;-10.782;2022-11-15T09:18:03;24.70;99.90
56298;DHT22;42208;6.376;-10.782;2022-11-15T09:20:50;24.60;99.90
56298;DHT22;42208;6.376;-10.782;2022-11-15T09:23:36;24.60;99.90
56298;DHT22;42208;6.376;-10.782;2022-11-15T09:26:22;24.60;99.90
56298;DHT22;42208;6.376;-10.782;2022-11-15T09:29:09;24.70;99.90
56298;DHT22;42208;6.376;-10.782;2022-11-15T09:31:56;24.80;99.90
56298;DHT22;42208;6.376;-10.782;2022-11-15T09:34:42;24.70;99.90
56298;DHT22;42208;6.376;-10.782;2022-11-15T09:37:32;24.80;99.90
56298;DHT22;42208;6.376;-10.782;2022-11-15T09:40:19;24.80;99.90
56298;DHT22;42208;6.376;-10.782;2022-11-15T09:46:22;24.80;99.90
56298;DHT22;42208;6.376;-10.782;2022-11-15T09:49:14;24.90;99.90
56298;DHT22;42208;6.376;-10.782;2022-11-15T09:52:00;25.00;99.90
56298;DHT22;42208;6.376;-10.782;2022-11-15T09:54:39;25.00;99.90
56298;DHT22;42208;6.376;-10.782;2022-11-15T09:57:38;25.10;99.90
56298;DHT22;42208;6.376;-10.782;2022-11-15T10:00:44;25.10;99.90
56298;DHT22;42208;6.376;-10.782;2022-11-15T10:03:29;25.20;99.90
56298;DHT22;42208;6.376;-10.782;2022-11-15T10:06:01;25.20;99.90
56298;DHT22;42208;6.376;-10.782;2022-11-15T10:11:40;25.40;99.90
56298;DHT22;42208;6.376;-10.782;2022-11-15T10:14:12;25.40;99.90
56298;DHT22;42208;6.376;-10.782;2022-11-15T10:25:14;25.70;99.90
56298;DHT22;42208;6.376;-10.782;2022-11-15T10:27:51;25.70;99.90
56298;DHT22;42208;6.376;-10.782;2022-11-15T10:30:20;25.70;99.90
56298;DHT22;42208;6.376;-10.782;2022-11-15T10:32:49;25.90;99.90
56298;DHT22;42208;6.376;-10.782;2022-11-15T10:35:26;25.90;99.90
56298;DHT22;42208;6.376;-10.782;2022-11-15T10:38:21;25.90;99.90
56298;DHT22;42208;6.376;-10.782;2022-11-15T10:41:06;26.10;99.90
56298;DHT22;42208;6.376;-10.782;2022-11-15T10:43:35;26.10;99.90
56298;DHT22;42208;6.376;-10.782;2022-11-15T10:46:19;26.30;99.90
56298;DHT22;42208;6.376;-10.782;2022-11-15T10:49:19;26.30;99.90
56298;DHT22;42208;6.376;-10.782;2022-11-15T10:54:47;26.40;99.90
56298;DHT22;42208;6.376;-10.782;2022-11-15T10:57:18;26.50;99.90
56298;DHT22;42208;6.376;-10.782;2022-11-15T10:59:49;26.50;99.90
56298;DHT22;42208;6.376;-10.782;2022-11-15T11:02:40;26.60;99.90
56298;DHT22;42208;6.376;-10.782;2022-11-15T11:05:35;26.50;99.90
56298;DHT22;42208;6.376;-10.782;2022-11-15T11:16:14;26.90;99.90
56298;DHT22;42208;6.376;-10.782;2022-11-15T11:18:56;26.90;99.90
56298;DHT22;42208;6.376;-10.782;2022-11-15T11:24:54;27.00;99.90
56298;DHT22;42208;6.376;-10.782;2022-11-15T11:30:20;27.10;99.90
56298;DHT22;42208;6.376;-10.782;2022-11-15T11:41:55;27.30;99.90
56298;DHT22;42208;6.376;-10.782;2022-11-15T11:47:01;27.60;99.90
56298;DHT22;42208;6.376;-10.782;2022-11-15T11:52:13;27.90;99.90
56298;DHT22;42208;6.376;-10.782;2022-11-15T12:00:20;28.10;99.90
56298;DHT22;42208;6.376;-10.782;2022-11-15T12:05:48;28.30;99.90
56298;DHT22;42208;6.376;-10.782;2022-11-15T12:08:35;28.40;99.90
56298;DHT22;42208;6.376;-10.782;2022-11-15T12:11:15;28.50;99.90
56298;DHT22;42208;6.376;-10.782;2022-11-15T12:13:48;28.70;99.90
56298;DHT22;42208;6.376;-10.782;2022-11-15T12:16:26;28.80;99.90
56298;DHT22;42208;6.376;-10.782;2022-11-15T12:18:58;28.90;99.90
56298;DHT22;42208;6.376;-10.782;2022-11-15T12:21:41;29.10;99.90
56298;DHT22;42208;6.376;-10.782;2022-11-15T12:27:03;29.00;99.90
56298;DHT22;42208;6.376;-10.782;2022-11-15T12:29:37;29.20;99.90
56298;DHT22;42208;6.376;-10.782;2022-11-15T12:32:28;29.20;99.90
56298;DHT22;42208;6.376;-10.782;2022-11-15T12:34:59;29.30;99.90
56298;DHT22;42208;6.376;-10.782;2022-11-15T12:40:23;28.90;99.90
56298;DHT22;42208;6.376;-10.782;2022-11-15T12:43:40;28.70;99.90
56298;DHT22;42208;6.376;-10.782;2022-11-15T12:46:20;28.90;99.90
56298;DHT22;42208;6.376;-10.782;2022-11-15T12:48:55;28.80;99.90
56298;DHT22;42208;6.376;-10.782;2022-11-15T12:59:50;28.50;99.90
56298;DHT22;42208;6.376;-10.782;2022-11-15T13:02:37;28.40;99.90
56298;DHT22;42208;6.376;-10.782;2022-11-15T13:17:53;28.30;99.90
56298;DHT22;42208;6.376;-10.782;2022-11-15T13:20:29;28.30;99.90
56298;DHT22;42208;6.376;-10.782;2022-11-15T13:23:12;28.40;99.90
56298;DHT22;42208;6.376;-10.782;2022-11-15T13:28:36;28.40;99.90
56298;DHT22;42208;6.376;-10.782;2022-11-15T13:33:45;28.40;99.90
56298;DHT22;42208;6.376;-10.782;2022-11-15T13:36:28;28.50;99.90
56298;DHT22;42208;6.376;-10.782;2022-11-15T13:39:03;28.50;99.90
56298;DHT22;42208;6.376;-10.782;2022-11-15T13:41:36;28.60;99.90
56298;DHT22;42208;6.376;-10.782;2022-11-15T13:44:27;28.70;99.90
56298;DHT22;42208;6.376;-10.782;2022-11-15T13:47:12;28.70;99.90
56298;DHT22;42208;6.376;-10.782;2022-11-15T13:49:41;28.70;99.90
56298;DHT22;42208;6.376;-10.782;2022-11-15T13:52:13;28.60;99.90
56298;DHT22;42208;6.376;-10.782;2022-11-15T13:57:23;28.80;99.90
56298;DHT22;42208;6.376;-10.782;2022-11-15T14:00:06;29.00;99.90
56298;DHT22;42208;6.376;-10.782;2022-11-15T14:02:50;29.10;99.90
56298;DHT22;42208;6.376;-10.782;2022-11-15T14:05:23;29.40;99.90
56298;DHT22;42208;6.376;-10.782;2022-11-15T14:07:58;29.50;99.90
56298;DHT22;42208;6.376;-10.782;2022-11-15T14:10:30;29.50;99.90
56298;DHT22;42208;6.376;-10.782;2022-11-15T14:12:59;29.30;99.90
56298;DHT22;42208;6.376;-10.782;2022-11-15T14:15:38;29.20;99.90
56298;DHT22;42208;6.376;-10.782;2022-11-15T14:18:45;29.00;99.90
56298;DHT22;42208;6.376;-10.782;2022-11-15T14:21:14;28.90;99.90
56298;DHT22;42208;6.376;-10.782;2022-11-15T14:23:43;28.80;99.90
56298;DHT22;42208;6.376;-10.782;2022-11-15T14:26:33;28.70;99.90
56298;DHT22;42208;6.376;-10.782;2022-11-15T14:31:53;28.70;99.90
56298;DHT22;42208;6.376;-10.782;2022-11-15T14:34:21;28.60;99.90
56298;DHT22;42208;6.376;-10.782;2022-11-15T14:36:50;28.50;99.90
56298;DHT22;42208;6.376;-10.782;2022-11-15T14:39:18;28.60;99.90
56298;DHT22;42208;6.376;-10.782;2022-11-15T14:41:47;28.60;99.90
56298;DHT22;42208;6.376;-10.782;2022-11-15T14:44:15;28.70;99.90
56298;DHT22;42208;6.376;-10.782;2022-11-15T14:46:43;28.70;99.90
56298;DHT22;42208;6.376;-10.782;2022-11-15T14:49:12;28.80;99.90
56298;DHT22;42208;6.376;-10.782;2022-11-15T14:51:40;28.80;99.90
56298;DHT22;42208;6.376;-10.782;2022-11-15T14:54:10;28.90;99.90
56298;DHT22;42208;6.376;-10.782;2022-11-15T14:56:38;29.20;99.90
56298;DHT22;42208;6.376;-10.782;2022-11-15T14:59:07;29.20;99.90
56298;DHT22;42208;6.376;-10.782;2022-11-15T15:01:35;29.50;99.90
56298;DHT22;42208;6.376;-10.782;2022-11-15T15:04:03;29.90;99.90
56298;DHT22;42208;6.376;-10.782;2022-11-15T15:06:31;30.10;99.90
56298;DHT22;42208;6.376;-10.782;2022-11-15T15:09:00;30.30;99.90
56298;DHT22;42208;6.376;-10.782;2022-11-15T15:11:31;30.60;99.90
56298;DHT22;42208;6.376;-10.782;2022-11-15T15:14:00;30.60;99.90
56298;DHT22;42208;6.376;-10.782;2022-11-15T15:16:28;31.00;99.90
56298;DHT22;42208;6.376;-10.782;2022-11-15T15:18:56;31.00;99.90
56298;DHT22;42208;6.376;-10.782;2022-11-15T15:21:26;31.10;99.90
56298;DHT22;42208;6.376;-10.782;2022-11-15T15:24:01;31.10;99.90
56298;DHT22;42208;6.376;-10.782;2022-11-15T15:26:30;31.20;99.90
56298;DHT22;42208;6.376;-10.782;2022-11-15T15:28:58;31.10;99.90
56298;DHT22;42208;6.376;-10.782;2022-11-15T15:31:26;31.10;99.90
56298;DHT22;42208;6.376;-10.782;2022-11-15T15:33:55;31.10;99.90
56298;DHT22;42208;6.376;-10.782;2022-11-15T15:36:23;30.80;99.90
56298;DHT22;42208;6.376;-10.782;2022-11-15T15:38:51;30.80;99.90
56298;DHT22;42208;6.376;-10.782;2022-11-15T15:41:20;30.70;99.90
56298;DHT22;42208;6.376;-10.782;2022-11-15T15:43:48;30.60;99.90
56298;DHT22;42208;6.376;-10.782;2022-11-15T15:46:18;30.40;99.90
56298;DHT22;42208;6.376;-10.782;2022-11-15T15:48:47;30.40;99.90
56298;DHT22;42208;6.376;-10.782;2022-11-15T15:51:15;30.30;99.90
56298;DHT22;42208;6.376;-10.782;2022-11-15T15:53:47;30.30;99.90
56298;DHT22;42208;6.376;-10.782;2022-11-15T15:56:15;30.10;99.90
56298;DHT22;42208;6.376;-10.782;2022-11-15T15:58:44;29.80;99.90
56298;DHT22;42208;6.376;-10.782;2022-11-15T16:01:12;29.60;99.90
56298;DHT22;42208;6.376;-10.782;2022-11-15T16:03:40;29.60;99.90
56298;DHT22;42208;6.376;-10.782;2022-11-15T16:06:32;29.50;99.90
56298;DHT22;42208;6.376;-10.782;2022-11-15T16:09:02;29.50;99.90
56298;DHT22;42208;6.376;-10.782;2022-11-15T16:11:47;29.60;99.90
56298;DHT22;42208;6.376;-10.782;2022-11-15T16:14:15;29.70;99.90
56298;DHT22;42208;6.376;-10.782;2022-11-15T16:16:44;29.60;99.90
56298;DHT22;42208;6.376;-10.782;2022-11-15T16:19:12;29.60;99.90
56298;DHT22;42208;6.376;-10.782;2022-11-15T16:21:40;29.70;99.90
56298;DHT22;42208;6.376;-10.782;2022-11-15T16:24:09;29.70;99.90
56298;DHT22;42208;6.376;-10.782;2022-11-15T16:26:37;29.50;99.90
56298;DHT22;42208;6.376;-10.782;2022-11-15T16:29:07;28.80;99.90
56298;DHT22;42208;6.376;-10.782;2022-11-15T16:31:36;28.20;99.90
56298;DHT22;42208;6.376;-10.782;2022-11-15T16:38:15;27.00;99.90
56298;DHT22;42208;6.376;-10.782;2022-11-15T16:40:43;26.70;99.90
56298;DHT22;42208;6.376;-10.782;2022-11-15T16:43:11;26.50;99.90
56298;DHT22;42208;6.376;-10.782;2022-11-15T16:45:40;26.30;99.90
56298;DHT22;42208;6.376;-10.782;2022-11-15T16:50:49;26.20;99.90
56298;DHT22;42208;6.376;-10.782;2022-11-15T16:53:17;26.10;99.90
56298;DHT22;42208;6.376;-10.782;2022-11-15T16:55:45;26.10;99.90
56298;DHT22;42208;6.376;-10.782;2022-11-15T16:58:13;26.20;99.90
56298;DHT22;42208;6.376;-10.782;2022-11-15T17:00:41;26.10;99.90
56298;DHT22;42208;6.376;-10.782;2022-11-15T17:03:10;26.20;99.90
56298;DHT22;42208;6.376;-10.782;2022-11-15T17:05:38;26.20;99.90
56298;DHT22;42208;6.376;-10.782;2022-11-15T17:08:07;26.00;99.90
56298;DHT22;42208;6.376;-10.782;2022-11-15T17:10:38;26.00;99.90
56298;DHT22;42208;6.376;-10.782;2022-11-15T17:13:10;25.90;99.90
56298;DHT22;42208;6.376;-10.782;2022-11-15T17:15:39;25.80;99.90
56298;DHT22;42208;6.376;-10.782;2022-11-15T17:18:10;25.60;99.90
56298;DHT22;42208;6.376;-10.782;2022-11-15T17:20:39;25.70;99.90
56298;DHT22;42208;6.376;-10.782;2022-11-15T17:23:14;25.70;99.90
56298;DHT22;42208;6.376;-10.782;2022-11-15T17:25:42;25.80;99.90
56298;DHT22;42208;6.376;-10.782;2022-11-15T17:28:11;25.80;99.90
56298;DHT22;42208;6.376;-10.782;2022-11-15T17:30:42;25.80;99.90
56298;DHT22;42208;6.376;-10.782;2022-11-15T17:33:10;25.80;99.90
56298;DHT22;42208;6.376;-10.782;2022-11-15T17:35:38;25.90;99.90
56298;DHT22;42208;6.376;-10.782;2022-11-15T17:38:06;25.90;99.90
56298;DHT22;42208;6.376;-10.782;2022-11-15T17:40:35;25.90;99.90
56298;DHT22;42208;6.376;-10.782;2022-11-15T17:43:05;25.90;99.90
56298;DHT22;42208;6.376;-10.782;2022-11-15T17:45:33;25.90;99.90
56298;DHT22;42208;6.376;-10.782;2022-11-15T17:48:01;26.00;99.90
56298;DHT22;42208;6.376;-10.782;2022-11-15T17:50:29;25.90;99.90
56298;DHT22;42208;6.376;-10.782;2022-11-15T17:53:01;25.90;99.90
56298;DHT22;42208;6.376;-10.782;2022-11-15T17:55:29;25.90;99.90
56298;DHT22;42208;6.376;-10.782;2022-11-15T17:57:57;25.90;99.90
56298;DHT22;42208;6.376;-10.782;2022-11-15T18:00:25;25.90;99.90
56298;DHT22;42208;6.376;-10.782;2022-11-15T18:02:56;25.90;99.90
56298;DHT22;42208;6.376;-10.782;2022-11-15T18:05:24;25.90;99.90
56298;DHT22;42208;6.376;-10.782;2022-11-15T18:07:52;25.90;99.90
56298;DHT22;42208;6.376;-10.782;2022-11-15T18:10:20;25.90;99.90
56298;DHT22;42208;6.376;-10.782;2022-11-15T18:12:49;25.80;99.90
56298;DHT22;42208;6.376;-10.782;2022-11-15T18:15:17;25.70;99.90
56298;DHT22;42208;6.376;-10.782;2022-11-15T18:17:45;25.70;99.90
56298;DHT22;42208;6.376;-10.782;2022-11-15T18:20:14;25.70;99.90
56298;DHT22;42208;6.376;-10.782;2022-11-15T18:22:42;25.70;99.90
56298;DHT22;42208;6.376;-10.782;2022-11-15T18:25:11;25.70;99.90
56298;DHT22;42208;6.376;-10.782;2022-11-15T18:27:39;25.80;99.90
56298;DHT22;42208;6.376;-10.782;2022-11-15T18:30:08;25.70;99.90
56298;DHT22;42208;6.376;-10.782;2022-11-15T18:32:36;25.70;99.90
56298;DHT22;42208;6.376;-10.782;2022-11-15T18:35:05;25.70;99.90
56298;DHT22;42208;6.376;-10.782;2022-11-15T18:37:34;25.60;99.90
56298;DHT22;42208;6.376;-10.782;2022-11-15T18:40:02;25.60;99.90
56298;DHT22;42208;6.376;-10.782;2022-11-15T18:42:30;25.60;99.90
56298;DHT22;42208;6.376;-10.782;2022-11-15T18:44:59;25.60;99.90
56298;DHT22;42208;6.376;-10.782;2022-11-15T18:47:27;25.60;99.90
56298;DHT22;42208;6.376;-10.782;2022-11-15T18:49:55;25.60;99.90
56298;DHT22;42208;6.376;-10.782;2022-11-15T18:52:24;25.50;99.90
56298;DHT22;42208;6.376;-10.782;2022-11-15T18:54:52;25.60;99.90
56298;DHT22;42208;6.376;-10.782;2022-11-15T18:57:20;25.50;99.90
56298;DHT22;42208;6.376;-10.782;2022-11-15T18:59:48;25.60;99.90
56298;DHT22;42208;6.376;-10.782;2022-11-15T19:02:17;25.50;99.90